Time;durP1;ratioP1;P1;durP2;ratioP2;P2;SDS_P1;SDS_P2;PMS_P1;PMS_P2;Temp;Humidity;BMP_temperature;BMP_pressure;BME280_temperature;BME280_humidity;BME280_pressure;Samples;Min_cycle;Max_cycle;Signal;HPM_P1;HPM_P2
2023/06/09 00:01:53;;;;;;;;;;;11.90;99.90;;;;;;5020839;28;19926;-86
2023/06/09 00:04:23;;;;;;;;;;;12.00;99.90;;;;;;5004171;28;20389;-86
2023/06/09 00:06:51;;;;;;;;;;;12.00;99.90;;;;;;5037490;28;19950;-87
2023/06/09 00:09:18;;;;;;;;;;;11.70;99.90;;;;;;5020815;28;20385;-86
2023/06/09 00:11:43;;;;;;;;;;;11.90;99.90;;;;;;5038061;28;20370;-86
2023/06/09 00:14:09;;;;;;;;;;;11.80;99.90;;;;;;5028635;28;19931;-86
2023/06/09 00:16:37;;;;;;;;;;;11.80;99.90;;;;;;5036886;28;19963;-83
2023/06/09 00:19:03;;;;;;;;;;;11.80;99.90;;;;;;5033681;28;20018;-87
2023/06/09 00:21:29;;;;;;;;;;;12.00;99.90;;;;;;5037347;28;20011;-86
2023/06/09 00:23:58;;;;;;;;;;;11.90;99.90;;;;;;5020336;28;19925;-85
2023/06/09 00:26:25;;;;;;;;;;;11.90;99.90;;;;;;5019230;28;19932;-86
2023/06/09 00:28:50;;;;;;;;;;;11.80;99.90;;;;;;5040721;28;19980;-86
2023/06/09 00:31:17;;;;;;;;;;;11.80;99.90;;;;;;5004283;28;19998;-86
2023/06/09 00:33:43;;;;;;;;;;;11.70;99.90;;;;;;5018799;28;20795;-87
2023/06/09 00:36:09;;;;;;;;;;;11.80;99.90;;;;;;5037401;28;20118;-86
2023/06/09 00:38:35;;;;;;;;;;;11.70;99.90;;;;;;5036885;28;19931;-86
2023/06/09 00:41:00;;;;;;;;;;;11.70;99.90;;;;;;5020882;28;19952;-85
2023/06/09 00:43:26;;;;;;;;;;;11.70;99.90;;;;;;5037042;28;19932;-86
2023/06/09 00:45:54;;;;;;;;;;;11.70;99.90;;;;;;5032643;28;20020;-85
2023/06/09 00:48:20;;;;;;;;;;;11.70;99.90;;;;;;5000752;28;19991;-85
2023/06/09 00:50:48;;;;;;;;;;;11.60;99.90;;;;;;5000705;28;20367;-85
2023/06/09 00:53:17;;;;;;;;;;;11.70;99.90;;;;;;5018070;28;19983;-85
2023/06/09 00:55:43;;;;;;;;;;;11.70;99.90;;;;;;5017593;28;20279;-85
2023/06/09 00:58:09;;;;;;;;;;;11.70;99.90;;;;;;5017313;28;20371;-85
2023/06/09 01:00:40;;;;;;;;;;;11.70;99.90;;;;;;5000607;28;19925;-85
2023/06/09 01:03:09;;;;;;;;;;;11.70;99.90;;;;;;5001259;28;19929;-85
2023/06/09 01:05:44;;;;;;;;;;;11.00;99.90;;;;;;5017872;28;19925;-85
2023/06/09 01:08:25;;;;;;;;;;;11.80;99.90;;;;;;5017115;28;20341;-85
2023/06/09 01:10:54;;;;;;;;;;;11.70;99.90;;;;;;5016985;28;19975;-85
2023/06/09 01:13:26;;;;;;;;;;;12.90;99.90;;;;;;5000405;28;19932;-85
2023/06/09 01:16:03;;;;;;;;;;;12.10;99.90;;;;;;5000707;28;19955;-86
2023/06/09 01:18:30;;;;;;;;;;;11.60;99.90;;;;;;5000415;28;20438;-85
2023/06/09 01:21:00;;;;;;;;;;;11.60;99.90;;;;;;5000215;28;19967;-86
2023/06/09 01:23:48;;;;;;;;;;;11.70;99.90;;;;;;5001030;28;19925;-85
2023/06/09 01:26:17;;;;;;;;;;;11.60;99.90;;;;;;5001863;28;19929;-85
2023/06/09 01:38:03;;;;;;;;;;;11.60;99.90;;;;;;4844429;26;19961;-84
2023/06/09 01:40:30;;;;;;;;;;;11.80;99.90;;;;;;4999332;28;20389;-85
2023/06/09 01:43:05;;;;;;;;;;;11.60;99.90;;;;;;5035039;28;19932;-86
2023/06/09 01:45:31;;;;;;;;;;;11.70;99.90;;;;;;5035906;28;19935;-85
2023/06/09 01:47:57;;;;;;;;;;;11.70;99.90;;;;;;5047031;22;20013;-85
2023/06/09 01:50:42;;;;;;;;;;;11.80;99.90;;;;;;4966104;28;19922;-86
2023/06/09 01:53:12;;;;;;;;;;;12.00;99.90;;;;;;4976597;28;20004;-85
2023/06/09 01:55:58;;;;;;;;;;;11.60;99.90;;;;;;4960119;28;20005;-85
2023/06/09 01:58:25;;;;;;;;;;;11.60;99.90;;;;;;4972978;28;19921;-85
2023/06/09 02:00:54;;;;;;;;;;;11.60;99.90;;;;;;4974398;28;19989;-86
2023/06/09 02:03:21;;;;;;;;;;;11.60;99.90;;;;;;4975765;28;19922;-85
2023/06/09 02:05:51;;;;;;;;;;;11.60;99.90;;;;;;4976739;28;20020;-85
2023/06/09 02:14:15;;;;;;;;;;;11.60;99.90;;;;;;3772661;22;19926;-83
2023/06/09 02:16:43;;;;;;;;;;;11.60;99.90;;;;;;4956733;28;19965;-86
2023/06/09 02:19:12;;;;;;;;;;;11.50;99.90;;;;;;4957603;28;20020;-86
2023/06/09 02:21:38;;;;;;;;;;;11.60;99.90;;;;;;4974332;28;19930;-86
2023/06/09 02:24:04;;;;;;;;;;;11.60;99.90;;;;;;4958461;28;19925;-85
2023/06/09 02:26:30;;;;;;;;;;;11.60;99.90;;;;;;5015847;23;20331;-86
2023/06/09 02:28:56;;;;;;;;;;;11.70;99.90;;;;;;5022192;28;19928;-85
2023/06/09 02:48:07;;;;;;;;;;;11.60;99.90;;;;;;5067294;23;19924;-83
2023/06/09 02:50:35;;;;;;;;;;;13.00;99.90;;;;;;5013530;28;19925;-85
2023/06/09 02:53:00;;;;;;;;;;;11.60;99.90;;;;;;5023172;28;19976;-86
2023/06/09 02:55:26;;;;;;;;;;;11.60;99.90;;;;;;5039299;28;19979;-85
2023/06/09 02:57:52;;;;;;;;;;;11.60;99.90;;;;;;5022926;28;19925;-85
2023/06/09 03:00:17;;;;;;;;;;;11.60;99.90;;;;;;5039342;28;19929;-86
2023/06/09 03:02:45;;;;;;;;;;;11.70;99.90;;;;;;5039059;28;19925;-86
2023/06/09 03:05:11;;;;;;;;;;;11.60;99.90;;;;;;5023277;28;20067;-85
2023/06/09 03:07:36;;;;;;;;;;;11.60;99.90;;;;;;5038970;28;20002;-85
2023/06/09 03:10:03;;;;;;;;;;;11.70;99.90;;;;;;5039487;28;19932;-86
2023/06/09 03:12:31;;;;;;;;;;;11.60;99.90;;;;;;5038487;28;20335;-85
2023/06/09 03:14:56;;;;;;;;;;;11.70;99.90;;;;;;5022663;28;19928;-85
2023/06/09 03:17:22;;;;;;;;;;;11.60;99.90;;;;;;5022745;28;20432;-86
2023/06/09 03:19:50;;;;;;;;;;;12.00;99.90;;;;;;5022812;28;20298;-86
2023/06/09 03:22:18;;;;;;;;;;;9.70;99.90;;;;;;5022124;28;19940;-86
2023/06/09 03:24:47;;;;;;;;;;;12.10;99.90;;;;;;5038613;28;20442;-86
2023/06/09 03:27:20;;;;;;;;;;;10.20;99.90;;;;;;5023158;28;20285;-86
2023/06/09 03:29:45;;;;;;;;;;;11.60;99.90;;;;;;5023128;28;19932;-86
2023/06/09 03:32:11;;;;;;;;;;;12.10;99.90;;;;;;5039053;28;19925;-85
2023/06/09 03:34:37;;;;;;;;;;;11.70;99.90;;;;;;5039403;28;20370;-85
2023/06/09 03:37:04;;;;;;;;;;;11.70;99.90;;;;;;5073848;23;20395;-86
2023/06/09 03:39:32;;;;;;;;;;;10.10;99.90;;;;;;5021213;28;20383;-85
2023/06/09 03:42:00;;;;;;;;;;;12.00;99.90;;;;;;5008328;28;20435;-86
2023/06/09 03:44:26;;;;;;;;;;;11.70;99.90;;;;;;5021046;28;19932;-86
2023/06/09 03:46:51;;;;;;;;;;;11.70;99.90;;;;;;5034728;28;19928;-85
2023/06/09 03:49:22;;;;;;;;;;;11.70;99.90;;;;;;5018903;28;20019;-86
2023/06/09 03:51:48;;;;;;;;;;;11.60;99.90;;;;;;5003717;28;19928;-86
2023/06/09 03:54:13;;;;;;;;;;;11.90;99.90;;;;;;5023225;28;20378;-85
2023/06/09 03:56:39;;;;;;;;;;;11.80;99.90;;;;;;5053551;28;19924;-85
2023/06/09 03:59:05;;;;;;;;;;;11.80;99.90;;;;;;5039293;28;19913;-86
2023/06/09 04:01:33;;;;;;;;;;;11.90;99.90;;;;;;5052585;28;19944;-85
2023/06/09 04:03:59;;;;;;;;;;;12.10;99.90;;;;;;5034444;28;20485;-86
2023/06/09 04:06:26;;;;;;;;;;;12.00;99.90;;;;;;5046473;28;19980;-85
2023/06/09 04:08:54;;;;;;;;;;;12.00;99.90;;;;;;5047527;28;19939;-85
2023/06/09 04:11:21;;;;;;;;;;;12.20;99.90;;;;;;5030871;28;19952;-85
2023/06/09 04:13:48;;;;;;;;;;;12.30;99.90;;;;;;5020465;28;19931;-85
2023/06/09 04:16:14;;;;;;;;;;;12.10;99.90;;;;;;5010527;28;20255;-86
2023/06/09 04:18:40;;;;;;;;;;;12.20;99.90;;;;;;5007182;28;19956;-85
2023/06/09 04:21:05;;;;;;;;;;;12.20;99.90;;;;;;5005194;28;19945;-85
2023/06/09 04:23:33;;;;;;;;;;;12.10;99.90;;;;;;5048572;28;19928;-85
2023/06/09 04:26:00;;;;;;;;;;;12.20;99.90;;;;;;5027398;28;19925;-84
2023/06/09 04:28:27;;;;;;;;;;;12.20;99.90;;;;;;5019257;28;19978;-85
2023/06/09 04:30:53;;;;;;;;;;;12.20;99.90;;;;;;5020633;28;19947;-85
2023/06/09 04:33:19;;;;;;;;;;;12.30;99.90;;;;;;5033150;28;19925;-85
2023/06/09 04:35:46;;;;;;;;;;;12.30;99.90;;;;;;5030060;28;20294;-86
2023/06/09 04:38:12;;;;;;;;;;;12.60;99.90;;;;;;5014807;28;19943;-85
2023/06/09 04:40:39;;;;;;;;;;;14.30;99.90;;;;;;5020510;28;19924;-86
2023/06/09 04:43:07;;;;;;;;;;;12.40;99.90;;;;;;5022113;28;19936;-87
2023/06/09 04:45:35;;;;;;;;;;;12.50;99.90;;;;;;5017099;28;19983;-85
2023/06/09 04:48:01;;;;;;;;;;;12.40;99.90;;;;;;5031926;28;19925;-86
2023/06/09 04:50:29;;;;;;;;;;;12.40;99.90;;;;;;5006956;28;19957;-86
2023/06/09 04:52:56;;;;;;;;;;;10.90;99.90;;;;;;5028588;28;20016;-85
2023/06/09 04:55:25;;;;;;;;;;;12.80;99.90;;;;;;5030173;28;20274;-86
2023/06/09 04:57:55;;;;;;;;;;;12.50;99.90;;;;;;5020058;28;19929;-85
2023/06/09 05:00:21;;;;;;;;;;;12.50;99.90;;;;;;5045278;28;20347;-85
2023/06/09 05:02:47;;;;;;;;;;;12.50;99.90;;;;;;5026587;28;20280;-85
2023/06/09 05:05:13;;;;;;;;;;;12.70;99.90;;;;;;5030718;28;19924;-86
2023/06/09 05:07:40;;;;;;;;;;;12.70;99.90;;;;;;5016282;28;19925;-84
2023/06/09 05:10:07;;;;;;;;;;;12.60;99.90;;;;;;5012097;28;19925;-85
2023/06/09 05:12:32;;;;;;;;;;;12.70;99.90;;;;;;5023072;28;20272;-85
2023/06/09 05:15:04;;;;;;;;;;;12.80;99.90;;;;;;5009823;28;19932;-85
2023/06/09 05:17:31;;;;;;;;;;;12.90;99.90;;;;;;5034869;28;19974;-87
2023/06/09 05:19:57;;;;;;;;;;;12.90;99.90;;;;;;5036217;28;19925;-85
2023/06/09 05:22:23;;;;;;;;;;;12.90;99.90;;;;;;5013291;28;19935;-86
2023/06/09 05:24:48;;;;;;;;;;;12.90;99.90;;;;;;5013379;28;20283;-85
2023/06/09 05:27:20;;;;;;;;;;;13.20;99.90;;;;;;5044796;28;19935;-85
2023/06/09 05:29:45;;;;;;;;;;;11.90;99.90;;;;;;5034843;28;20336;-86
2023/06/09 05:32:11;;;;;;;;;;;13.10;99.90;;;;;;5023670;28;19932;-85
2023/06/09 05:34:37;;;;;;;;;;;13.10;99.90;;;;;;5025276;28;19925;-85
2023/06/09 05:37:04;;;;;;;;;;;13.20;99.90;;;;;;5047393;28;20392;-86
2023/06/09 05:39:32;;;;;;;;;;;13.20;99.90;;;;;;5008476;28;20042;-85
2023/06/09 05:41:57;;;;;;;;;;;13.30;99.90;;;;;;5010838;28;19932;-85
2023/06/09 05:44:28;;;;;;;;;;;13.50;99.90;;;;;;5033668;28;19925;-85
2023/06/09 05:46:54;;;;;;;;;;;13.40;99.90;;;;;;5052604;28;19963;-86
2023/06/09 05:49:20;;;;;;;;;;;13.40;99.90;;;;;;5018232;28;20374;-85
2023/06/09 05:51:46;;;;;;;;;;;13.50;99.90;;;;;;5032885;28;20015;-85
2023/06/09 05:54:11;;;;;;;;;;;13.60;99.90;;;;;;5046180;28;19968;-85
2023/06/09 05:56:38;;;;;;;;;;;13.70;99.90;;;;;;5025371;28;19925;-86
2023/06/09 05:59:09;;;;;;;;;;;13.60;99.90;;;;;;5035619;28;19925;-87
2023/06/09 06:01:35;;;;;;;;;;;13.70;99.90;;;;;;5001677;28;20004;-85
2023/06/09 06:04:01;;;;;;;;;;;13.80;99.90;;;;;;5028875;28;19978;-84
2023/06/09 06:06:26;;;;;;;;;;;13.80;99.90;;;;;;5033389;28;19982;-83
2023/06/09 06:08:52;;;;;;;;;;;13.80;99.90;;;;;;5021891;28;19982;-84
2023/06/09 06:11:18;;;;;;;;;;;13.90;99.90;;;;;;5008254;28;19924;-84
2023/06/09 06:13:43;;;;;;;;;;;13.90;99.90;;;;;;5013705;28;19925;-84
2023/06/09 06:16:09;;;;;;;;;;;13.90;99.90;;;;;;5000829;28;19982;-86
2023/06/09 06:18:34;;;;;;;;;;;14.10;99.90;;;;;;5029561;28;19971;-85
2023/06/09 06:21:00;;;;;;;;;;;14.20;99.90;;;;;;5036440;28;20018;-83
2023/06/09 06:23:27;;;;;;;;;;;14.20;99.90;;;;;;5023306;28;20341;-84
2023/06/09 06:25:53;;;;;;;;;;;14.30;99.90;;;;;;5024107;28;19940;-85
2023/06/09 06:28:19;;;;;;;;;;;14.30;99.90;;;;;;5012767;28;19974;-85
2023/06/09 06:30:45;;;;;;;;;;;14.40;99.90;;;;;;5019187;28;19925;-85
2023/06/09 06:33:11;;;;;;;;;;;15.80;99.90;;;;;;5028151;28;19951;-84
2023/06/09 06:35:36;;;;;;;;;;;14.50;99.90;;;;;;5022657;28;19929;-84
2023/06/09 06:38:02;;;;;;;;;;;14.50;99.90;;;;;;5014321;28;19925;-84
2023/06/09 06:40:30;;;;;;;;;;;14.60;99.90;;;;;;5022505;28;20324;-85
2023/06/09 06:43:04;;;;;;;;;;;14.70;99.90;;;;;;5021986;28;20318;-87
2023/06/09 06:45:32;;;;;;;;;;;14.70;99.90;;;;;;5042354;28;19929;-88
2023/06/09 06:47:57;;;;;;;;;;;15.30;99.90;;;;;;5025241;28;19933;-86
2023/06/09 06:50:29;;;;;;;;;;;14.90;99.90;;;;;;5014750;28;19925;-86
2023/06/09 06:52:57;;;;;;;;;;;15.30;99.90;;;;;;4993834;28;20024;-87
2023/06/09 06:55:25;;;;;;;;;;;15.20;99.90;;;;;;5000586;28;20274;-87
2023/06/09 06:57:54;;;;;;;;;;;13.10;99.90;;;;;;5033040;28;19929;-86
2023/06/09 07:00:27;;;;;;;;;;;15.10;99.90;;;;;;5030985;28;20293;-89
2023/06/09 07:02:59;;;;;;;;;;;16.50;99.90;;;;;;5043648;28;19935;-88
2023/06/09 07:05:55;;;;;;;;;;;;;;;;;;;;;
2023/06/09 07:08:26;;;;;;;;;;;15.50;99.90;;;;;;5024470;28;20390;-88
2023/06/09 07:13:43;;;;;;;;;;;15.50;99.90;;;;;;5002245;28;19925;-87
2023/06/09 07:16:11;;;;;;;;;;;15.70;99.90;;;;;;5014472;28;19964;-87
2023/06/09 07:19:01;;;;;;;;;;;16.10;99.90;;;;;;5013220;28;19969;-88
2023/06/09 07:21:38;;;;;;;;;;;;;;;;;;;;;
2023/06/09 07:24:20;;;;;;;;;;;15.60;99.90;;;;;;5030637;28;19971;-87
2023/06/09 07:26:53;;;;;;;;;;;15.90;99.90;;;;;;5013386;28;20375;-87
2023/06/09 07:29:19;;;;;;;;;;;16.20;99.90;;;;;;5020314;28;20015;-87
2023/06/09 07:31:45;;;;;;;;;;;16.60;99.90;;;;;;5025476;28;20028;-86
2023/06/09 07:34:15;;;;;;;;;;;16.10;99.90;;;;;;5023117;28;20902;-88
2023/06/09 07:36:54;;;;;;;;;;;;;;;;;;;;;
2023/06/09 07:39:20;;;;;;;;;;;16.30;99.90;;;;;;5050132;28;19914;-89
2023/06/09 07:41:46;;;;;;;;;;;14.60;99.90;;;;;;5044394;28;19925;-89
2023/06/09 07:44:14;;;;;;;;;;;16.70;99.90;;;;;;5035957;28;19935;-92
2023/06/09 07:46:45;;;;;;;;;;;16.70;99.90;;;;;;5039429;28;19925;-88
2023/06/09 07:51:57;;;;;;;;;;;16.80;99.90;;;;;;5011564;28;19949;-88
2023/06/09 07:54:30;;;;;;;;;;;15.80;99.90;;;;;;5008857;28;19925;-88
2023/06/09 07:57:03;;;;;;;;;;;15.40;99.90;;;;;;5005809;28;19925;-88
2023/06/09 08:02:54;;;;;;;;;;;15.80;99.90;;;;;;4997509;28;20019;-87
2023/06/09 08:05:25;;;;;;;;;;;17.10;99.90;;;;;;5009103;28;19932;-88
2023/06/09 08:07:51;;;;;;;;;;;16.60;99.90;;;;;;5001332;28;19925;-87
2023/06/09 08:10:21;;;;;;;;;;;17.40;99.90;;;;;;4999071;28;20056;-87
2023/06/09 08:13:00;;;;;;;;;;;17.80;99.90;;;;;;5019881;28;19925;-87
2023/06/09 08:15:28;;;;;;;;;;;19.20;99.90;;;;;;4999314;28;19929;-89
2023/06/09 08:17:59;;;;;;;;;;;17.00;99.90;;;;;;4983277;28;19944;-88
2023/06/09 08:20:39;;;;;;;;;;;17.80;99.90;;;;;;4995460;28;19974;-89
2023/06/09 08:23:07;;;;;;;;;;;18.20;99.90;;;;;;5012370;28;20282;-89
2023/06/09 08:25:35;;;;;;;;;;;18.00;99.90;;;;;;5020459;28;20375;-86
2023/06/09 08:28:26;;;;;;;;;;;18.30;99.90;;;;;;4990056;28;19975;-87
2023/06/09 08:30:55;;;;;;;;;;;18.30;99.90;;;;;;5026119;28;19995;-86
2023/06/09 08:33:30;;;;;;;;;;;17.70;99.90;;;;;;5002864;28;19929;-88
2023/06/09 08:36:08;;;;;;;;;;;;;;;;;;;;;
2023/06/09 08:38:57;;;;;;;;;;;19.00;99.90;;;;;;4991806;28;19925;-87
2023/06/09 08:41:45;;;;;;;;;;;18.70;99.90;;;;;;5002363;28;19978;-86
2023/06/09 08:44:11;;;;;;;;;;;17.60;99.90;;;;;;5028314;28;19925;-86
2023/06/09 08:46:40;;;;;;;;;;;19.20;99.90;;;;;;4997801;28;19925;-89
2023/06/09 08:49:16;;;;;;;;;;;19.20;99.90;;;;;;5026246;28;19925;-89
2023/06/09 08:51:51;;;;;;;;;;;19.30;99.90;;;;;;5004404;28;19929;-88
2023/06/09 08:54:20;;;;;;;;;;;19.60;99.90;;;;;;5001485;28;19932;-87
2023/06/09 08:56:47;;;;;;;;;;;19.50;99.90;;;;;;4991283;28;19936;-87
2023/06/09 08:59:18;;;;;;;;;;;18.30;99.90;;;;;;5008814;28;20333;-88
2023/06/09 09:01:47;;;;;;;;;;;19.70;99.90;;;;;;5027552;28;20378;-87
2023/06/09 09:04:15;;;;;;;;;;;19.80;99.90;;;;;;5014683;28;19971;-87
2023/06/09 09:06:43;;;;;;;;;;;19.80;99.90;;;;;;4984450;28;20379;-87
2023/06/09 09:09:08;;;;;;;;;;;20.00;99.90;;;;;;5038618;28;20264;-87
2023/06/09 09:11:34;;;;;;;;;;;20.00;99.90;;;;;;4978928;28;19932;-86
2023/06/09 09:14:10;;;;;;;;;;;20.20;99.90;;;;;;4995046;28;19929;-88
2023/06/09 09:16:40;;;;;;;;;;;20.30;99.90;;;;;;5000661;28;20008;-86
2023/06/09 09:19:12;;;;;;;;;;;20.50;99.90;;;;;;5011395;28;20385;-87
2023/06/09 09:21:47;;;;;;;;;;;20.70;99.90;;;;;;5011368;28;19925;-87
2023/06/09 09:24:15;;;;;;;;;;;19.30;99.90;;;;;;5030673;28;19971;-89
2023/06/09 09:26:56;;;;;;;;;;;;;;;;;;;;;
2023/06/09 09:29:26;;;;;;;;;;;20.80;99.90;;;;;;5013840;28;20387;-88
2023/06/09 09:32:02;;;;;;;;;;;20.90;99.90;;;;;;4988639;28;19976;-89
2023/06/09 09:34:51;;;;;;;;;;;21.00;99.90;;;;;;4995675;28;20260;-91
2023/06/09 09:37:29;;;;;;;;;;;21.20;99.90;;;;;;5003459;28;20412;-88
2023/06/09 09:40:22;;;;;;;;;;;20.30;99.90;;;;;;5007123;28;19925;-89
2023/06/09 09:42:51;;;;;;;;;;;21.90;99.90;;;;;;5001168;28;19925;-88
2023/06/09 09:45:25;;;;;;;;;;;21.40;99.90;;;;;;4995924;28;19952;-87
2023/06/09 09:47:50;;;;;;;;;;;20.40;99.90;;;;;;5004054;28;19929;-86
2023/06/09 09:50:33;;;;;;;;;;;;;;;;;;;;;
2023/06/09 09:53:10;;;;;;;;;;;21.80;99.90;;;;;;5006529;28;19932;-88
2023/06/09 09:55:42;;;;;;;;;;;21.30;99.90;;;;;;5011644;28;19979;-87
2023/06/09 09:58:11;;;;;;;;;;;22.00;99.90;;;;;;4993636;28;19924;-87
2023/06/09 10:00:37;;;;;;;;;;;22.10;99.90;;;;;;5003361;28;20012;-86
2023/06/09 10:03:07;;;;;;;;;;;22.10;99.90;;;;;;5010390;28;20395;-87
2023/06/09 10:05:37;;;;;;;;;;;21.40;99.90;;;;;;4995647;28;19926;-86
2023/06/09 10:08:09;;;;;;;;;;;22.30;99.90;;;;;;4994885;28;19925;-85
2023/06/09 10:10:35;;;;;;;;;;;22.40;99.90;;;;;;5002257;28;20704;-86
2023/06/09 10:13:03;;;;;;;;;;;22.50;99.90;;;;;;4994464;28;19928;-85
2023/06/09 10:15:31;;;;;;;;;;;22.70;99.90;;;;;;5024041;28;19936;-86
2023/06/09 10:17:57;;;;;;;;;;;22.60;99.90;;;;;;5016702;28;19925;-85
2023/06/09 10:20:23;;;;;;;;;;;22.80;99.90;;;;;;5006633;28;19925;-86
2023/06/09 10:22:48;;;;;;;;;;;22.80;99.90;;;;;;4994446;28;20363;-86
2023/06/09 10:25:24;;;;;;;;;;;22.90;99.90;;;;;;4981145;28;19976;-86
2023/06/09 10:27:50;;;;;;;;;;;23.10;99.90;;;;;;5002271;28;19980;-86
2023/06/09 10:30:16;;;;;;;;;;;23.20;99.90;;;;;;4996400;28;19925;-87
2023/06/09 10:32:52;;;;;;;;;;;23.20;99.30;;;;;;5014621;28;20450;-86
2023/06/09 10:35:21;;;;;;;;;;;23.40;99.90;;;;;;5009306;28;20267;-86
2023/06/09 10:37:49;;;;;;;;;;;23.50;98.90;;;;;;4988058;28;20334;-85
2023/06/09 10:40:37;;;;;;;;;;;23.60;97.40;;;;;;4990333;28;20009;-85
2023/06/09 10:43:21;;;;;;;;;;;23.80;97.00;;;;;;5029768;28;20031;-86
2023/06/09 10:45:48;;;;;;;;;;;23.90;98.00;;;;;;4988967;28;19925;-85
2023/06/09 10:48:15;;;;;;;;;;;24.00;98.00;;;;;;5007005;28;19968;-85
2023/06/09 10:50:48;;;;;;;;;;;24.10;98.60;;;;;;4991483;28;20198;-88
2023/06/09 10:53:15;;;;;;;;;;;24.20;95.80;;;;;;4991409;28;20011;-87
2023/06/09 10:55:41;;;;;;;;;;;24.30;98.00;;;;;;5012512;28;19933;-88
2023/06/09 10:58:26;;;;;;;;;;;22.80;95.60;;;;;;4998547;28;19932;-88
2023/06/09 11:01:06;;;;;;;;;;;24.40;95.80;;;;;;4985214;28;19964;-88
2023/06/09 11:03:32;;;;;;;;;;;24.50;95.10;;;;;;5009033;28;19929;-86
2023/06/09 11:06:00;;;;;;;;;;;24.60;94.80;;;;;;4988360;28;20368;-87
2023/06/09 11:08:25;;;;;;;;;;;24.70;93.60;;;;;;5036790;28;19932;-89
2023/06/09 11:10:51;;;;;;;;;;;24.80;92.70;;;;;;5018973;28;19952;-90
2023/06/09 11:13:37;;;;;;;;;;;24.90;91.70;;;;;;5003486;28;19926;-90
2023/06/09 11:16:09;;;;;;;;;;;25.00;92.10;;;;;;5012791;28;20067;-87
2023/06/09 11:18:34;;;;;;;;;;;25.10;92.60;;;;;;5005543;28;19926;-87
2023/06/09 11:21:10;;;;;;;;;;;25.10;91.30;;;;;;5012426;28;19932;-85
2023/06/09 11:23:54;;;;;;;;;;;25.30;90.90;;;;;;5003525;28;19948;-86
2023/06/09 11:26:21;;;;;;;;;;;25.40;88.90;;;;;;5011883;28;20415;-84
2023/06/09 11:28:50;;;;;;;;;;;25.30;85.50;;;;;;5006121;28;19968;-86
2023/06/09 11:31:19;;;;;;;;;;;25.40;86.40;;;;;;4982439;28;20395;-86
2023/06/09 11:33:46;;;;;;;;;;;25.50;84.80;;;;;;4998116;28;19925;-87
2023/06/09 11:36:23;;;;;;;;;;;25.50;83.70;;;;;;5000420;28;20425;-87
2023/06/09 11:39:10;;;;;;;;;;;25.60;81.90;;;;;;5007825;28;19925;-86
2023/06/09 11:41:36;;;;;;;;;;;25.70;82.50;;;;;;5022481;28;19932;-87
2023/06/09 11:44:22;;;;;;;;;;;25.90;82.50;;;;;;5014062;28;19929;-86
2023/06/09 11:46:50;;;;;;;;;;;25.80;81.20;;;;;;5006043;28;20295;-87
2023/06/09 11:49:21;;;;;;;;;;;25.90;81.00;;;;;;4991151;28;19926;-86
2023/06/09 11:52:08;;;;;;;;;;;26.00;80.50;;;;;;4991841;28;19925;-88
2023/06/09 11:54:49;;;;;;;;;;;26.10;77.80;;;;;;5004714;28;20063;-87
2023/06/09 11:57:15;;;;;;;;;;;26.10;77.30;;;;;;4994097;28;19933;-87
2023/06/09 11:59:41;;;;;;;;;;;26.20;78.50;;;;;;5011717;28;19926;-87
2023/06/09 12:02:07;;;;;;;;;;;26.40;77.50;;;;;;4995707;28;19936;-87
2023/06/09 12:04:38;;;;;;;;;;;26.50;78.00;;;;;;5010935;28;19925;-87
2023/06/09 12:07:05;;;;;;;;;;;26.60;75.10;;;;;;5003542;28;20003;-88
2023/06/09 12:09:30;;;;;;;;;;;26.60;73.60;;;;;;5012644;28;20385;-87
2023/06/09 12:11:58;;;;;;;;;;;26.50;73.60;;;;;;5009580;28;20055;-86
2023/06/09 12:14:24;;;;;;;;;;;26.50;74.40;;;;;;5015947;28;20007;-87
2023/06/09 12:16:50;;;;;;;;;;;26.60;74.70;;;;;;4999330;28;20048;-88
2023/06/09 12:19:19;;;;;;;;;;;26.60;73.20;;;;;;5012644;28;19932;-88
2023/06/09 12:21:51;;;;;;;;;;;26.70;73.40;;;;;;4991967;28;20303;-85
2023/06/09 12:24:16;;;;;;;;;;;26.70;72.70;;;;;;4996213;28;19925;-88
2023/06/09 12:26:48;;;;;;;;;;;26.80;73.80;;;;;;4998486;28;19925;-88
2023/06/09 12:29:36;;;;;;;;;;;26.90;73.50;;;;;;5016505;28;19933;-88
2023/06/09 12:32:03;;;;;;;;;;;25.70;72.70;;;;;;5014345;28;19932;-89
2023/06/09 12:34:30;;;;;;;;;;;27.00;75.60;;;;;;4998709;28;19925;-86
2023/06/09 12:37:01;;;;;;;;;;;25.90;73.40;;;;;;5011646;28;19925;-85
2023/06/09 12:39:32;;;;;;;;;;;27.00;72.70;;;;;;4982632;28;19929;-86
2023/06/09 12:42:08;;;;;;;;;;;27.10;71.90;;;;;;4992967;28;19958;-87
2023/06/09 12:44:41;;;;;;;;;;;27.10;71.90;;;;;;5014184;28;20019;-86
2023/06/09 12:47:14;;;;;;;;;;;27.30;74.10;;;;;;5027465;28;19987;-89
2023/06/09 12:49:47;;;;;;;;;;;27.30;71.10;;;;;;4990979;28;20445;-88
2023/06/09 12:52:15;;;;;;;;;;;27.30;74.30;;;;;;5003772;28;19925;-87
2023/06/09 12:54:44;;;;;;;;;;;27.30;72.40;;;;;;5007065;28;19932;-86
2023/06/09 12:57:20;;;;;;;;;;;;;;;;;;;;;
2023/06/09 12:59:56;;;;;;;;;;;27.50;75.70;;;;;;5007376;28;20356;-86
2023/06/09 13:02:24;;;;;;;;;;;27.40;73.40;;;;;;4995904;28;19999;-86
2023/06/09 13:04:52;;;;;;;;;;;27.40;73.30;;;;;;4989563;28;19925;-87
2023/06/09 13:07:25;;;;;;;;;;;27.20;71.60;;;;;;5010335;28;19991;-87
2023/06/09 13:10:01;;;;;;;;;;;;;;;;;;;;;
2023/06/09 13:12:31;;;;;;;;;;;27.40;74.40;;;;;;5003684;28;19925;-88
2023/06/09 13:15:07;;;;;;;;;;;27.50;72.70;;;;;;4988548;28;20035;-87
2023/06/09 13:17:35;;;;;;;;;;;27.30;72.50;;;;;;5012690;28;19944;-87
2023/06/09 13:20:07;;;;;;;;;;;27.40;72.70;;;;;;5011518;28;19941;-85
2023/06/09 13:22:34;;;;;;;;;;;27.50;70.60;;;;;;5012478;28;20036;-87
2023/06/09 13:25:09;;;;;;;;;;;27.10;69.70;;;;;;4998020;28;20012;-87
2023/06/09 13:27:39;;;;;;;;;;;27.50;71.30;;;;;;5000982;28;19952;-87
2023/06/09 13:30:07;;;;;;;;;;;27.60;71.10;;;;;;5022061;28;19932;-88
2023/06/09 13:32:39;;;;;;;;;;;26.70;69.80;;;;;;4996876;28;19952;-87
2023/06/09 13:35:05;;;;;;;;;;;27.70;70.10;;;;;;5013860;28;19983;-88
2023/06/09 13:37:38;;;;;;;;;;;27.70;70.80;;;;;;5005524;28;20325;-88
2023/06/09 13:40:09;;;;;;;;;;;27.60;71.40;;;;;;5012221;28;19925;-87
2023/06/09 13:42:37;;;;;;;;;;;27.60;71.90;;;;;;5011094;28;20433;-89
2023/06/09 13:45:10;;;;;;;;;;;27.70;72.10;;;;;;5015619;28;19933;-87
2023/06/09 13:47:46;;;;;;;;;;;28.30;69.80;;;;;;5043192;28;19925;-87
2023/06/09 13:50:18;;;;;;;;;;;27.80;71.40;;;;;;5017281;28;20374;-89
2023/06/09 13:52:47;;;;;;;;;;;29.20;71.30;;;;;;5014696;28;19925;-89
2023/06/09 13:55:13;;;;;;;;;;;27.70;71.60;;;;;;5028709;28;19924;-89
2023/06/09 13:57:42;;;;;;;;;;;27.80;70.80;;;;;;5025539;28;19947;-88
2023/06/09 14:00:11;;;;;;;;;;;28.00;70.70;;;;;;5016010;28;19929;-89
2023/06/09 14:02:48;;;;;;;;;;;27.80;70.80;;;;;;5018158;28;19925;-90
2023/06/09 14:05:20;;;;;;;;;;;28.00;68.50;;;;;;5034395;28;19924;-89
2023/06/09 14:07:54;;;;;;;;;;;29.60;72.20;;;;;;5011421;28;19931;-89
2023/06/09 14:10:23;;;;;;;;;;;28.00;75.00;;;;;;5029083;28;19925;-89
2023/06/09 14:12:55;;;;;;;;;;;26.30;72.60;;;;;;5018209;28;20008;-88
2023/06/09 14:15:28;;;;;;;;;;;27.90;74.10;;;;;;5032457;28;20048;-89
2023/06/09 14:18:02;;;;;;;;;;;28.00;74.50;;;;;;5023357;28;20375;-89
2023/06/09 14:20:40;;;;;;;;;;;28.00;76.00;;;;;;5014206;28;19929;-89
2023/06/09 14:23:11;;;;;;;;;;;28.30;73.70;;;;;;5043706;28;19936;-89
2023/06/09 14:25:39;;;;;;;;;;;28.00;73.30;;;;;;5030535;28;19925;-90
2023/06/09 14:28:15;;;;;;;;;;;27.30;73.00;;;;;;5017005;28;19944;-90
2023/06/09 14:30:56;;;;;;;;;;;28.10;70.70;;;;;;5045550;28;19913;-92
2023/06/09 14:33:50;;;;;;;;;;;28.50;75.40;;;;;;5071127;28;19913;-89
2023/06/09 14:36:18;;;;;;;;;;;28.20;74.80;;;;;;5041828;28;19936;-89
2023/06/09 14:38:47;;;;;;;;;;;27.90;72.20;;;;;;5024107;28;19932;-89
2023/06/09 14:41:19;;;;;;;;;;;28.10;76.20;;;;;;5047752;28;19925;-88
2023/06/09 14:43:52;;;;;;;;;;;27.90;75.80;;;;;;5015066;28;19925;-87
2023/06/09 14:46:17;;;;;;;;;;;28.00;72.50;;;;;;5002945;28;19932;-90
2023/06/09 14:48:45;;;;;;;;;;;27.70;78.10;;;;;;5023148;28;20274;-89
2023/06/09 14:51:19;;;;;;;;;;;27.80;78.30;;;;;;5033302;28;19929;-87
2023/06/09 14:53:50;;;;;;;;;;;27.80;76.90;;;;;;5031735;28;19964;-90
2023/06/09 14:56:21;;;;;;;;;;;26.60;77.60;;;;;;5044425;28;19974;-90
2023/06/09 14:58:53;;;;;;;;;;;27.90;81.30;;;;;;5034652;28;19948;-89
2023/06/09 15:01:50;;;;;;;;;;;27.80;76.90;;;;;;5023461;28;19925;-88
2023/06/09 15:04:21;;;;;;;;;;;27.70;77.30;;;;;;5005293;28;19933;-88
2023/06/09 15:06:55;;;;;;;;;;;27.70;78.40;;;;;;5019872;28;19928;-89
2023/06/09 15:09:23;;;;;;;;;;;27.40;81.00;;;;;;5033912;28;20340;-90
2023/06/09 15:11:51;;;;;;;;;;;27.50;80.70;;;;;;5007276;28;20009;-90
2023/06/09 15:14:19;;;;;;;;;;;27.80;81.80;;;;;;5026612;28;20012;-87
2023/06/09 15:16:57;;;;;;;;;;;27.40;81.70;;;;;;5013877;28;19971;-87
2023/06/09 15:19:30;;;;;;;;;;;27.30;78.30;;;;;;5015656;28;20268;-88
2023/06/09 15:21:58;;;;;;;;;;;27.10;78.30;;;;;;5017607;28;19925;-89
2023/06/09 15:24:24;;;;;;;;;;;26.90;78.90;;;;;;5004661;28;20427;-89